Home Team Position History
You can show your support by sponsoring this page for $50.  
Your ad/message will appear in this space for one year.  
Thank you for your support!       Team History Index Boston Red Sox
         
          Left Field
             
Pos St All- Other Left Field Fielding Statistics Pos St Batting Statistics as Left Fielder Win Shares Pos St
Year Rank Rank Name HOF MVP Star Rookie GG SS Team Stdg Bats Age Pos Games PO Assts Err DP F Pct. Year Rank Rank Name At Bats Hits 2B 3B HR Runs RBI BB IBB SO HP SH SF SB CS GDP BA OBA SA OPS RC B WS F WS T WS BWS/G FWS/G TWS/G Adj WSQ Year Rank Rank Name
1901 3 3 Tommy Dowd     BOS 2 R 32   137 288 11 20 3 .937   1901 3 3 Tommy Dowd 581 156 18 7 3 102 51 37 3 7 32 .269 .316 .339 .655 81   9.8 4.7 14.5 .072 .034 .106 14.05 1901 3 3 Tommy Dowd
         
1902 4 4 Patsy Dougherty   R   BOS 3 L 25   102 170 8 20 1 .899   1902 4 4 Patsy Dougherty 434 149 12 6 0 76 34 42 6 3 20 .343 .409 .399 .808 79   15.3 1.5 16.8 .150 .015 .165 17.63 1902 4 4 Patsy Dougherty
1902 9 Charlie Hickman     BOS 3 R 26 1B   27 60 2 4 0 .939   1902 9 Charlie Hickman 108 32 5 2 3 13 16 3 4 0 1 .296 .339 .463 .802 18   3.6 0.8 4.4 .133 .030 .163 4.59 1902 9 Charlie Hickman
         
1903 1 1 Patsy Dougherty     BOS 1 L 26   139 259 16 14 3 .952   1903 1 1 Patsy Dougherty 590 195 19 12 4 107 59 33 6 18 35 .331 .372 .424 .796 109   23.6 4.7 28.3 .170 .034 .204 34.38 1903 1 1 Patsy Dougherty
         
1904 1 2 Kip Selbach     BOS 1 R 32   98 190 8 8 2 .961   1904 1 2 Kip Selbach 376 97 19 8 0 50 30 48 3 8 10 .258 .347 .351 .698 56   14.6 2.4 17.0 .149 .024 .173 18.57 1904 1 2 Kip Selbach
1904 3 Patsy Dougherty     BOS 1 L 27   49 95 4 8 3 .925   1904 3 Patsy Dougherty 195 53 5 4 0 33 4 25 0 3 10 .272 .355 .338 .693 30   7.0 1.1 8.1 .143 .022 .165 8.63 1904 3 Patsy Dougherty
         
1905 3 3 Jesse Burkett Vet     BOS 4 L 36   148 276 11 22 0 .929   1905 3 3 Jesse Burkett 573 147 12 13 4 78 47 67 4 10 13 .257 .339 .344 .683 81   18.7 2.9 21.6 .126 .020 .146 21.87 1905 3 3 Jesse Burkett
         
1906 12 8 Jack Hoey   R   BOS 8 L 24   94 155 7 15 0 .915   1906 12 8 Jack Hoey 361 88 8 4 0 27 24 14 1 13 10 .244 .274 .288 .562 29   2.5 0.8 3.3 .027 .009 .035 1.74 1906 12 8 Jack Hoey
1906 11 Kip Selbach     BOS 8 R 34   58 109 6 4 2 .966   1906 11 Kip Selbach 228 48 9 2 0 15 23 18 3 3 7 .211 .277 .268 .545 19   2.0 0.9 2.9 .034 .016 .050 1.83 1906 11 Kip Selbach
         
1907 7 7 Jimmy Barrett     BOS 7 L 32   96 176 14 7 5 .964   1907 7 7 Jimmy Barrett 378 92 11 6 1 50 27 37 2 8 3 .243 .314 .312 .626 41   6.1 2.6 8.7 .064 .027 .091 6.92 1907 7 7 Jimmy Barrett
1907 12 Freddy Parent     BOS 7 R 31 SS   26 49 6 1 1 .982   1907 12 Freddy Parent 103 29 5 1 0 13 7 6 1 4 3 .282 .327 .350 .677 12   2.1 0.7 2.8 .081 .027 .108 2.43 1907 12 Freddy Parent
         
1908 9 8 Jack Thoney     BOS 5 R 28   87 173 11 11 2 .944   1908 9 8 Jack Thoney 358 91 4 8 2 50 26 11 3 8 14 .254 .282 .327 .609 38   7.2 2.3 9.5 .083 .026 .109 7.92 1908 9 8 Jack Thoney
1908 7 Gavvy Cravath   R   BOS 5 R 27   62 103 6 9 2 .924   1908 7 Gavvy Cravath 209 54 8 8 1 33 26 29 3 6 5 .258 .357 .388 .745 34   8.6 0.8 9.4 .139 .013 .152 9.23 1908 7 Gavvy Cravath
         
1909 9 7 Harry Niles     BOS 3 R 28 RF   77 126 13 7 2 .952   1909 9 7 Harry Niles 292 72 6 3 1 34 20 21 7 10 14 .247 .313 .298 .611 30   5.6 1.8 7.4 .073 .023 .096 6.31 1909 9 7 Harry Niles
1909 8 Harry Hooper Vet   R   BOS 3 L 21   62 102 11 6 2 .950   1909 8 Harry Hooper 214 60 3 3 0 24 10 13 4 5 13 .280 .333 .322 .655 27   6.2 1.7 7.9 .100 .027 .127 7.76 1909 8 Harry Hooper
         
1910 1 1 Duffy Lewis   R   BOS 4 R 22   149 261 28 17 9 .944   1910 1 1 Duffy Lewis 541 153 29 7 8 64 68 32 4 27 10 .283 .328 .407 .735 72   14.7 3.9 18.6 .099 .026 .125 19.31 1910 1 1 Duffy Lewis
         
1911 3 3 Duffy Lewis     BOS 5 R 23   125 203 27 15 4 .939   1911 3 3 Duffy Lewis 469 144 32 4 7 64 86 25 10 23 11 .307 .355 .437 .792 71   11.7 3.2 14.9 .094 .026 .119 15.25 1911 3 3 Duffy Lewis
1911 13 Joe Riggert   R   BOS 5 R 24   21 32 1 3 1 .917   1911 13 Joe Riggert 81 17 2 2 1 11 7 7 2 3 3 .210 .289 .321 .610 8   0.6 0.3 0.9 .029 .014 .043 0.55 1911 13 Joe Riggert
         
1912 1 1 Duffy Lewis     BOS 1 R 24   154 301 23 18 4 .947   1912 1 1 Duffy Lewis 581 165 36 9 6 85 109 52 3 31 9 .284 .346 .408 .754 91   16.1 5.1 21.2 .105 .033 .138 24.62 1912 1 1 Duffy Lewis
         
1913 2 2 Duffy Lewis     BOS 4 R 25   142 262 29 12 3 .960   1913 2 2 Duffy Lewis 547 163 31 12 0 54 89 30 55 2 29 12 .298 .337 .399 .736 72   13.7 2.6 16.3 .096 .018 .115 17.52 1913 2 2 Duffy Lewis
         
1914 2 2 Duffy Lewis T20     BOS 2 R 26   142 254 22 14 2 .952   1914 2 2 Duffy Lewis 510 142 37 9 2 53 79 57 41 5 24 22 31 .278 .357 .398 .755 72   16.6 3.6 20.2 .117 .025 .142 21.94 1914 2 2 Duffy Lewis
         
1915 2 2 Duffy Lewis     BOS 1 R 27   152 263 15 14 3 .952   1915 2 2 Duffy Lewis 557 162 31 7 2 69 76 45 63 4 28 14 7 .291 .348 .382 .730 86   20.1 3.7 23.8 .132 .024 .157 26.43 1915 2 2 Duffy Lewis
         
1916 5 5 Duffy Lewis     BOS 1 R 28   136 267 15 9 3 .969   1916 5 5 Duffy Lewis 507 136 26 5 1 50 50 30 50 4 22 14 0 .268 .314 .345 .659 57   12.6 3.9 16.5 .093 .029 .121 15.45 1916 5 5 Duffy Lewis
         
1917 3 3 Duffy Lewis     BOS 2 R 29   150 324 20 10 6 .972   1917 3 3 Duffy Lewis 553 167 29 9 1 55 65 29 54 5 33 8 .302 .342 .392 .734 77   18.1 5.6 23.7 .121 .037 .158 25.15 1917 3 3 Duffy Lewis
         
1918 7 6 George Whiteman   R   BOS 1 R 35   65 89 5 7 1 .931   1918 7 6 George Whiteman 202 54 13 0 1 23 26 19 8 2 11 8 .267 .336 .347 .683 25   6.5 1.1 7.6 .100 .017 .117 7.57 1918 7 6 George Whiteman
1918 1 Babe Ruth BBW     BOS 1 L 23 SP   47 90 6 6 2 .941   1918 1 Babe Ruth 162 49 13 6 6 26 34 30 30 1 2 3 .302 .415 .568 .983 38   12.6 1.5 14.1 .268 .032 .300 22.50 1918 1 Babe Ruth
         
1919 1 1 Babe Ruth BBW     BOS 6 L 24 SP   111 222 14 1 6 .996   1919 1 1 Babe Ruth 363 117 29 10 24 87 96 85 49 5 3 6 .322 .457 .656 1.113 102   28.2 1.9 30.1 .254 .017 .271 40.30 1919 1 1 Babe Ruth
1919 12 Frank Gilhooley     BOS 6 L 27   30 39 3 4 0 .913   1919 12 Frank Gilhooley 102 25 4 0 0 13 1 11 7 0 3 2 .245 .319 .284 .603 10   1.0 0.3 1.3 .033 .010 .043 0.70 1919 12 Frank Gilhooley
         
Pos St All- Other Left Field Fielding Statistics Pos St Batting Statistics as Left Fielder Win Shares Pos St
Year Rank Rank Name HOF MVP Star Rookie GG SS Team Stdg Bats Age Pos Games PO Assts Err DP F Pct. Year Rank Rank Name At Bats Hits 2B 3B HR Runs RBI BB IBB SO HP SH SF SB CS GDP BA OBA SA OPS RC B WS F WS T WS BWS/G FWS/G TWS/G Adj WSQ Year Rank Rank Name
1920 4 3 Mike Menosky     BOS 5 L 25   141 281 17 12 2 .961   1920 4 3 Mike Menosky 532 158 24 9 3 80 64 65 52 9 21 23 19 .297 .383 .393 .776 82   13.8 2.8 16.6 .098 .020 .118 15.23 1920 4 3 Mike Menosky
         
1921 4 4 Mike Menosky     BOS 5 L 26   133 278 12 9 3 .970   1921 4 4 Mike Menosky 477 143 18 5 3 77 45 60 45 9 19 12 6 .300 .388 .377 .765 78   12.4 3.2 15.6 .093 .024 .117 14.00 1921 4 4 Mike Menosky
         
1922 10 8 Mike Menosky     BOS 8 L 27 RF   74 169 10 4 2 .978   1922 10 8 Mike Menosky 289 82 11 4 2 43 23 28 23 4 8 6 4 .284 .355 .370 .725 39   5.5 2.2 7.7 .074 .030 .104 6.69 1922 10 8 Mike Menosky
1922 8 Joe Harris     BOS 8 R 30 1B   71 159 13 9 2 .950   1922 8 Joe Harris 279 88 20 6 4 36 37 20 10 1 6 1 4 .315 .363 .473 .836 46   7.9 1.8 9.7 .111 .025 .137 9.66 1922 8 Joe Harris
         
1923 4 4 Joe Harris T18     BOS 8 R 31   132 289 13 10 2 .968   1923 4 4 Joe Harris 452 152 26 10 12 77 71 49 25 5 12 7 3 .336 .407 .518 .925 93   18.8 2.9 21.7 .142 .022 .164 22.86 1923 4 4 Joe Harris
1923 16 Mike Menosky     BOS 8 L 28   28 52 7 6 1 .908   1923 16 Mike Menosky 107 25 5 2 0 13 14 13 11 0 4 2 3 .234 .317 .318 .635 10   0.5 0.5 1.0 .018 .018 .036 0.49 1923 16 Mike Menosky
         
1924 9 8 Bobby Veach     BOS 7 L 36   130 270 15 13 2 .956   1924 9 8 Bobby Veach 519 153 35 9 5 77 99 47 18 5 28 5 5 .295 .359 .426 .785 79   9.8 2.9 12.7 .075 .022 .098 10.66 1924 9 8 Bobby Veach
         
1925 8 8 Tex Vache   R   BOS 8 R 29   53 85 2 9 0 .906   1925 8 8 Tex Vache 230 72 14 6 3 37 44 19 30 6 3 2 2 .313 .380 .465 .845 40   5.7 0.4 6.1 .108 .008 .115 5.78 1925 8 8 Tex Vache
1925 14 Denny Williams   R   BOS 8 L 25   42 87 3 5 1 .947   1925 14 Denny Williams 173 40 1 2 0 22 10 13 9 0 3 2 5 .231 .285 .260 .545 12   - 0.6 0.6 .000 .014 .014 0.20 1925 14 Denny Williams
1925 10 Roy Carlyle   R   BOS 8 L 24 RF   43 80 3 8 0 .912   1925 10 Roy Carlyle 177 58 13 2 4 23 31 10 18 1 4 1 1 .328 .367 .492 .859 31   4.3 0.4 4.7 .100 .009 .109 4.34 1925 10 Roy Carlyle
         
1926 12 8 Wally Shaner   R   BOS 8 R 26   48 106 3 4 2 .965   1926 12 8 Wally Shaner 191 54 12 2 0 20 21 17 13 2 2 1 0 .283 .348 .366 .714 25   2.8 0.9 3.7 .058 .019 .077 2.83 1926 12 8 Wally Shaner
1926 15 Si Rosenthal   R   BOS 8 L 22   48 72 0 3 0 .960   1926 15 Si Rosenthal 204 54 9 2 3 24 24 14 13 1 5 3 1 .265 .315 .373 .688 24   2.3 0.4 2.7 .048 .008 .056 1.76 1926 15 Si Rosenthal
1926 16 Fred Bratschi   R   BOS 8 R 34   29 43 1 2 0 .957   1926 16 Fred Bratschi 131 36 8 1 0 9 15 11 12 1 1 0 1 .275 .336 .351 .687 15   1.5 0.2 1.7 .052 .007 .059 1.13 1926 16 Fred Bratschi
1926 17 Howie Fitzgerald   R   BOS 8 L 24   21 26 2 4 0 .875   1926 17 Howie Fitzgerald 89 23 2 0 0 10 7 5 6 0 1 1 4 .258 .298 .281 .579 6   - 0.1 0.1 .000 .005 .005 0.02 1926 17 Howie Fitzgerald
         
1927 11 8 Wally Shaner     BOS 8 R 27 CF   85 146 9 8 1 .951   1927 11 8 Wally Shaner 285 78 23 4 2 38 34 15 25 1 5 8 3 .274 .312 .404 .716 35   4.0 0.9 4.9 .047 .011 .058 3.19 1927 11 8 Wally Shaner
1927 13 Baby Doll Jacobson     BOS 8 R 36 CF   39 89 6 4 0 .960   1927 13 Baby Doll Jacobson 155 38 9 3 0 11 24 5 12 2 2 1 0 .245 .278 .342 .620 14   0.7 0.7 1.4 .018 .018 .036 0.65 1927 13 Baby Doll Jacobson
1927 12 Cleo Carlyle   R   BOS 8 L 24 RF   30 45 4 2 0 .961   1927 12 Cleo Carlyle 100 23 4 3 0 11 10 13 14 0 3 1 1 .230 .319 .330 .649 11   0.9 0.5 1.4 .030 .017 .047 0.82 1927 12 Cleo Carlyle
         
1928 7 6 Ken Williams     BOS 8 L 38   127 253 10 8 0 .970   1928 7 6 Ken Williams 462 140 25 1 8 59 67 37 15 1 15 4 9 .303 .356 .413 .769 65   9.5 2.2 11.7 .075 .017 .092 9.21 1928 7 6 Ken Williams
1928 17 Jack Rothrock     BOS 8 B 23   26 39 1 1 0 .976   1928 17 Jack Rothrock 84 22 2 1 1 13 5 8 10 0 1 3 1 .262 .326 .345 .671 10   1.1 0.3 1.4 .042 .012 .054 0.84 1928 17 Jack Rothrock
         
1929 8 6 Russ Scarritt   R   BOS 8 L 26   134 278 15 18 5 .942   1929 8 6 Russ Scarritt 499 147 24 16 1 64 66 31 35 1 17 12 10 .295 .337 .413 .750 66   7.8 2.4 10.2 .058 .018 .076 7.77 1929 8 6 Russ Scarritt
         
1930 12 8 Russ Scarritt       BOS 8 L 27   110 256 5 9 0 .967   1930 12 8 Russ Scarritt 447 129 17 8 2 48 48 12 49 3 13 4 7 .289 .312 .376 .688 50   3.4 2.0 5.4 .031 .018 .049 3.28 1930 12 8 Russ Scarritt
1930 18 Cedric Durst       BOS 8 L 33 RF   46 89 2 3 0 .968   1930 18 Cedric Durst 185 45 12 3 1 18 15 10 15 1 6 2 1 .243 .286 .357 .643 19   0.9 0.7 1.6 .020 .015 .035 0.80 1930 18 Cedric Durst
           
1931 9 7 Jack Rothrock     BOS 6 B 26 2B   75 144 9 3 1 .981   1931 9 7 Jack Rothrock 315 88 21 2 3 54 28 31 32 0 1 9 5 .279 .344 .387 .731 44   5.4 1.2 6.6 .072 .016 .088 5.23 1931 9 7 Jack Rothrock
1931 11 Al Van Camp   R   BOS 6 R 27 1B   58 97 3 3 0 .971   1931 11 Al Van Camp 214 59 10 3 0 22 22 13 16 1 2 2 1 .276 .320 .350 .670 25   2.4 0.9 3.3 .041 .016 .057 2.10 1931 11 Al Van Camp
         
1932 8 7 Smead Jolley T24     BOS 8 L 30   120 223 11 14 3 .944   1932 8 7 Smead Jolley 486 150 25 4 16 52 91 25 26 2 0 1 4 .309 .345 .475 .820 72   8.9 1.5 10.4 .074 .013 .087 8.23 1932 8 7 Smead Jolley
         
1933 8 7 Smead Jolley   BOS 7 L 31   87 152 10 8 2 .953   1933 8 7 Smead Jolley 351 99 27 3 8 40 55 20 17 2 0 1 1 .282 .324 .444 .768 51   6.7 1.9 8.6 .077 .022 .099 7.53 1933 8 7 Smead Jolley
1933 10 Dusty Cooke   BOS 7 L 26 CF,RF   47 71 2 4 1 .948   1933 10 Dusty Cooke 145 43 11 3 2 27 17 21 23 1 3 2 2 .297 .389 .455 .844 26   3.9 0.7 4.6 .083 .015 .098 4.01 1933 10 Dusty Cooke
1933 12 Roy Johnson   BOS 7 L 30 RF   26 54 3 5 1 .919   1933 12 Roy Johnson 96 30 6 1 2 17 19 11 7 1 1 3 2 .313 .389 .458 .847 17   2.7 0.5 3.2 .104 .019 .123 3.12 1933 12 Roy Johnson
       
1934 5 5 Roy Johnson T12   BOS 4 L 31   137 260 12 15 1 .948   1934 5 5 Roy Johnson 569 182 43 10 7 85 119 54 36 0 3 11 5 .320 .379 .467 .846 109   16.1 2.7 18.8 .118 .020 .137 19.16 1934 5 5 Roy Johnson
       
1935 4 4 Roy Johnson   BOS 4 L 32   142 267 21 17 1 .944   1935 4 4 Roy Johnson 553 174 33 9 3 70 66 74 34 3 5 11 12 .315 .398 .423 .821 89   12.5 4.3 16.8 .088 .030 .118 16.54 1935 4 4 Roy Johnson
       
Pos St All- Other Left Field Fielding Statistics Pos St Batting Statistics as Left Fielder Win Shares Pos St
Year Rank Rank Name HOF MVP Star Rookie GG SS Team Stdg Bats Age Pos Games PO Assts Err DP F Pct. Year Rank Rank Name At Bats Hits 2B 3B HR Runs RBI BB IBB SO HP SH SF SB CS GDP BA OBA SA OPS RC B WS F WS T WS BWS/G FWS/G TWS/G Adj WSQ Year Rank Rank Name
1936 11 8 Heinie Manush Vet   BOS 6 L 34   72 110 3 4 1 .966   1936 11 8 Heinie Manush 313 91 15 5 0 43 45 17 11 1 3 1 3 .291 .329 .371 .700 38   2.4 1.4 3.8 .033 .019 .053 2.55 1936 11 8 Heinie Manush
1936 12 Bill Werber   BOS 6 R 28 3B   38 76 5 2 0 .976   1936 12 Bill Werber 138 38 7 2 3 23 17 23 10 1 3 6 3 .275 .383 .420 .803 23   2.2 0.7 2.9 .058 .018 .076 2.34 1936 12 Bill Werber
1936 13 Dusty Cooke   BOS 6 L 29 RF   24 54 1 2 0 .965   1936 13 Dusty Cooke 89 24 5 1 2 15 12 19 13 0 0 1 1 .270 .398 .416 .814 15   1.7 0.7 2.4 .071 .029 .100 2.22 1936 13 Dusty Cooke
       
1937 6 6 Buster Mills R   BOS 5 R 28   107 204 7 12 0 .946   1937 6 6 Buster Mills 443 131 22 7 6 75 51 40 36 5 8 10 7 .296 .361 .418 .779 68   8.5 1.8 10.3 .079 .017 .096 9.39 1937 6 6 Buster Mills
1937 13 Dom Dallessandro R   BOS 5 L 23   30 46 1 2 0 .959   1937 13 Dom Dallessandro 126 29 6 1 0 15 9 23 14 0 1 2 1 .230 .349 .294 .643 15   1.2 0.4 1.6 .040 .013 .053 1.09 1937 13 Dom Dallessandro
       
1938 2 2 Joe Vosmik T21   BOS 2 R 28   146 299 14 7 4 .978   1938 2 2 Joe Vosmik 617 200 37 6 9 120 85 59 26 2 7 0 3 .324 .385 .447 .832 108   15.2 3.8 19.0 .104 .026 .130 21.17 1938 2 2 Joe Vosmik
       
1939 6 5 Joe Vosmik   BOS 2 R 29   144 296 9 8 0 .974   1939 6 5 Joe Vosmik 554 153 29 6 7 89 84 66 33 3 17 4 3 27 .276 .356 .388 .744 78   8.0 3.0 11.0 .056 .021 .076 8.80 1939 6 5 Joe Vosmik
       
1940 2 2 Ted Williams BBW T14 A   BOS T4 L 21   128 268 11 12 2 .959   1940 2 2 Ted Williams 495 170 38 12 20 118 100 85 48 3 1 4 4 11 .343 .443 .590 1.033 123   24.1 2.2 26.3 .188 .017 .205 30.91 1940 2 2 Ted Williams
       
1941 1 1 Ted Williams BBW 2 A   BOS 2 L 22   130 254 11 11 2 .960   1941 1 1 Ted Williams 442 179 32 3 36 131 116 143 26 3 0 2 4 10 .405 .553 .735 1.288 165   38.4 2.2 40.6 .295 .017 .312 60.54 1941 1 1 Ted Williams
1941 15 Stan Spence R   BOS 2 L 26   27 46 3 0 1 1.000   1941 15 Stan Spence 102 24 5 2 1 11 14 9 7 2 2 1 0 2 .235 .310 .353 .663 11   1.0 0.5 1.5 .037 .019 .056 0.94 1941 15 Stan Spence
       
1942 1 1 Ted Williams BBW 2 A   BOS 2 L 23   150 313 15 4 4 .988   1942 1 1 Ted Williams 522 186 34 5 36 141 137 145 51 4 0 3 2 12 .356 .499 .648 1.147 160   41.5 4.6 46.1 .277 .031 .307 60.38 1942 1 1 Ted Williams
       
1943 14 8 Johnny Lazor R   BOS 7 L 30   51 101 5 2 0 .981   1943 14 8 Johnny Lazor 161 36 8 2 0 16 10 16 19 0 2 4 5 2 .224 .294 .298 .592 14   1.0 1.0 2.0 .020 .020 .039 1.03 1943 14 8 Johnny Lazor
1943 16 Al Simmons BBW   BOS 7 R 41   33 66 3 1 1 .986   1943 16 Al Simmons 133 27 5 0 1 9 12 8 21 0 0 0 1 3 .203 .248 .263 .511 7   - 0.7 0.7 .000 .021 .021 0.26 1943 16 Al Simmons
1943 9 Leon Culberson R   BOS 7 R 23 CF   28 62 4 2 1 .971   1943 9 Leon Culberson 111 30 6 2 1 13 12 11 12 0 1 5 0 2 .270 .336 .387 .723 16   3.1 0.7 3.8 .111 .025 .136 3.64 1943 9 Leon Culberson
1943 15 Babe Barna   BOS 7 L 28 NL-CF   29 44 3 3 1 .940   1943 15 Babe Barna 112 19 4 1 2 19 10 15 24 0 0 2 1 1 .170 .268 .277 .545 9   0.9 0.3 1.2 .031 .010 .041 0.63 1943 15 Babe Barna
1943 13 Ford Garrison R   BOS 7 R 27   26 59 2 1 0 .984   1943 13 Ford Garrison 105 29 4 1 1 11 9 4 11 0 2 0 1 2 .276 .303 .362 .665 11   1.5 0.6 2.1 .058 .023 .081 1.55 1943 13 Ford Garrison
       
1944 1 1 Bob Johnson 10 A   BOS 4 R 37   142 270 23 7 3 .977   1944 1 1 Bob Johnson 525 170 40 8 17 106 106 95 67 4 2 2 7 14 .324 .431 .528 .959 120   28.2 2.5 30.7 .199 .018 .216 39.39 1944 1 1 Bob Johnson
1944 21 Tom McBride R   BOS 4 R 29 RF   23 41 3 1 0 .978   1944 21 Tom McBride 78 19 3 1 0 10 9 3 5 0 2 1 0 3 .244 .272 .308 .580 6   0.5 0.4 0.9 .022 .017 .039 0.49 1944 21 Tom McBride
       
1945 4 3 Bob Johnson T23 a*   BOS 7 R 38   140 293 15 8 4 .975   1945 4 3 Bob Johnson 525 147 27 7 12 70 73 63 56 1 0 5 3 13 .280 .358 .427 .785 76   17.6 2.5 20.1 .126 .018 .144 21.03 1945 4 3 Bob Johnson
       
1946 1 1 Ted Williams BBW 1 A   BOS 1 L 27   150 325 7 10 2 .971   1946 1 1 Ted Williams 514 176 37 8 38 142 123 156 44 2 0 0 0 12 .342 .497 .667 1.164 163   45.1 4.0 49.1 .301 .027 .327 75.47 1946 1 1 Ted Williams
       
1947 1 1 Ted Williams BBW 2 A   BOS 3 L 28   156 347 10 9 2 .975   1947 1 1 Ted Williams 528 181 40 9 32 125 114 162 47 2 1 0 1 10 .343 .499 .634 1.133 161   41.1 3.4 44.5 .263 .022 .285 64.14 1947 1 1 Ted Williams
       
1948 1 1 Ted Williams BBW 3 a   BOS 2 L 29   134 289 9 5 2 .983   1948 1 1 Ted Williams 509 188 44 3 25 124 127 126 41 3 0 4 0 10 .369 .497 .615 1.112 160   36.8 2.7 39.5 .275 .020 .295 59.90 1948 1 1 Ted Williams
1948 12 Stan Spence   BOS 2 L 33 RF   24 53 1 1 0 .982   1948 12 Stan Spence 87 20 4 1 3 16 14 18 7 0 1 0 0 2 .230 .362 .402 .764 14   2.2 0.4 2.6 .092 .017 .108 2.39 1948 12 Stan Spence
       
1949 1 1 Ted Williams BBW 1 A   BOS 2 L 30   155 337 12 6 3 .983   1949 1 1 Ted Williams 566 194 39 3 43 150 159 162 48 2 0 1 1 22 .343 .490 .650 1.140 174   36.6 3.3 39.9 .236 .021 .257 55.12 1949 1 1 Ted Williams
       
1950 2 2 Ted Williams BBW T21 A   BOS 3 L 31   86 165 7 8 0 .956   1950 2 2 Ted Williams 334 106 24 1 28 82 97 82 21 0 0 3 0 12 .317 .452 .647 1.099 98   17.9 1.5 19.4 .208 .017 .226 26.25 1950 2 2 Ted Williams
1950 8 Billy Goodman 2   BOS 3 L 24 1B,3B   45 104 2 1 1 .991   1950 8 Billy Goodman 193 68 11 1 2 41 31 24 11 1 3 1 2 4 .352 .427 .451 .878 39   6.2 0.9 7.1 .138 .020 .158 8.03 1950 8 Billy Goodman
       
1951 1 1 Ted Williams BBW 13 A   BOS 3 L 32   147 315 12 4 6 .988   1951 1 1 Ted Williams 531 169 28 4 30 109 126 144 45 0 0 1 1 10 .318 .464 .556 1.020 144   30.4 3.3 33.7 .207 .022 .229 44.26 1951 1 1 Ted Williams
       
1952 6 5 Hoot Evers   BOS 6 R 31 RF   90 156 6 4 2 .976   1952 6 5 Hoot Evers 296 77 13 3 10 39 44 21 41 3 5 4 1 8 .260 .316 .426 .742 41   6.0 1.9 7.9 .067 .021 .088 6.96 1952 6 5 Hoot Evers
1952 9 Clyde Vollmer   BOS 6 R 30 RF   43 81 2 0 1 1.000   1952 9 Clyde Vollmer 147 39 7 2 6 21 29 23 28 2 1 1 1 8 .265 .372 .463 .835 25   4.4 1.0 5.4 .102 .023 .126 5.69 1952 9 Clyde Vollmer
1952 8 Don Lenhardt   BOS 6 R 29   27 52 0 1 0 .981   1952 8 Don Lenhardt 105 31 4 0 7 18 24 15 18 0 1 0 1 3 .295 .383 .533 .916 21   3.2 0.4 3.6 .119 .015 .133 3.72 1952 8 Don Lenhardt
       
Pos St All- Other Left Field Fielding Statistics Pos St Batting Statistics as Left Fielder Win Shares Pos St
Year Rank Rank Name HOF MVP Star Rookie GG SS Team Stdg Bats Age Pos Games PO Assts Err DP F Pct. Year Rank Rank Name At Bats Hits 2B 3B HR Runs RBI BB IBB SO HP SH SF SB CS GDP BA OBA SA OPS RC B WS F WS T WS BWS/G FWS/G TWS/G Adj WSQ Year Rank Rank Name
1953 13 8 Hoot Evers   BOS 4 R 32   78 126 3 2 0 .985   1953 13 8 Hoot Evers 249 60 8 1 9 32 26 19 34 2 3 2 1 7 .241 .300 .390 .690 27   2.7 1.7 4.4 .035 .022 .056 3.07 1953 13 8 Hoot Evers
1953 18 Gene Stephens R   BOS 4 L 20   71 108 2 4 0 .965   1953 18 Gene Stephens 212 43 6 2 3 29 17 28 54 2 2 3 3 1 .203 .302 .292 .594 19   0.9 1.3 2.2 .013 .018 .031 1.14 1953 18 Gene Stephens
1953 5 Ted Williams BBW T26 a   BOS 4 L 34   26 31 1 1 1 .970   1953 5 Ted Williams 91 37 6 0 13 17 34 19 10 0 0 0 1 1 .407 .509 .901 1.410 34   8.8 0.4 9.2 .338 .015 .354 16.07 1953 5 Ted Williams
1953 21 Karl Olson R   BOS 4 R 22   23 28 1 1 0 .967   1953 21 Karl Olson 52 6 2 0 1 5 6 1 8 0 0 0 0 4 .115 .132 .212 .344 0   - 0.3 0.3 .000 .013 .013 0.10 1953 21 Karl Olson
       
1954 1 1 Ted Williams BBW 7 a   BOS 4 L 35   115 213 5 4 0 .982   1954 1 1 Ted Williams 382 131 23 1 28 92 86 136 17 32 1 0 3 0 1 11 .343 .513 .628 1.141 117   27.3 1.9 29.2 .237 .017 .254 41.78 1954 1 1 Ted Williams
1954 19 Karl Olson R   BOS 4 R 23 CF   28 18 1 2 0 .905   1954 19 Karl Olson 18 3 0 1 0 3 1 1 0 1 0 1 0 0 0 2 .167 .211 .278 .489 1   - 0.2 0.2 .000 .007 .007 0.05 1954 19 Karl Olson
1954 18 Charlie Maxwell R   BOS 4 L 27   21 20 0 0 0 1.000   1954 18 Charlie Maxwell 44 12 1 1 0 6 2 4 0 8 0 1 0 2 0 2 .273 .333 .341 .674 5   0.4 0.2 0.6 .019 .010 .029 0.29 1954 18 Charlie Maxwell
       
1955 1 1 Ted Williams BBW 4 A   BOS 4 L 36   93 170 5 2 0 .989   1955 1 1 Ted Williams 318 113 21 3 28 79 82 88 17 24 2 0 3 2 1 8 .355 .494 .704 1.198 101   20.6 2.9 23.5 .222 .031 .253 35.14 1955 1 1 Ted Williams
1955 13 Gene Stephens   BOS 4 L 22   71 70 7 2 1 .975   1955 13 Gene Stephens 116 41 9 4 3 19 17 11 0 18 2 1 2 0 0 0 .353 .412 .578 .990 27   4.3 1.2 5.5 .061 .017 .077 4.55 1955 13 Gene Stephens
1955 14 Faye Throneberry   BOS 4 L 24   32 65 3 3 0 .958   1955 14 Faye Throneberry 112 29 6 2 5 17 21 11 1 25 1 0 2 0 0 2 .259 .325 .482 .807 18   2.5 1.0 3.5 .078 .031 .109 3.44 1955 14 Faye Throneberry
       
1956 2 2 Ted Williams BBW 6 A   BOS 4 L 37   110 174 7 5 2 .973   1956 2 2 Ted Williams 380 133 26 2 24 65 78 96 8 38 1 0 0 0 0 11 .350 .482 .618 1.100 105   22.5 2.4 24.9 .205 .022 .226 33.11 1956 2 2 Ted Williams
1956 9 Dick Gernert   BOS 4 R 27 1B   50 60 4 1 2 .985   1956 9 Dick Gernert 133 33 5 0 5 23 26 28 0 18 0 0 0 0 0 5 .248 .379 .398 .777 21   3.8 0.9 4.7 .076 .018 .094 4.03 1956 9 Dick Gernert
1956 18 Gene Stephens   BOS 4 L 23   70 50 2 0 0 1.000   1956 18 Gene Stephens 30 9 1 0 0 5 5 6 0 7 0 0 0 0 1 0 .300 .417 .333 .750 4   0.7 0.7 1.4 .010 .010 .020 0.55 1956 18 Gene Stephens
       
1957 1 1 Ted Williams BBW 2 A   BOS 3 L 38   125 215 2 1 0 .995   1957 1 1 Ted Williams 415 160 28 1 35 93 83 117 32 42 5 0 1 0 1 11 .386 .524 .711 1.235 143   35.2 2.7 37.9 .282 .022 .303 54.80 1957 1 1 Ted Williams
1957 9 Gene Stephens   BOS 3 L 24   76 48 3 1 1 .981   1957 9 Gene Stephens 82 27 4 2 2 9 15 20 0 7 0 0 3 0 0 1 .329 .448 .500 .948 21   3.4 0.7 4.1 .045 .009 .054 2.50 1957 9 Gene Stephens
       
1958 2 2 Ted Williams BBW 7 a   BOS 3 L 39   114 154 3 7 0 .957   1958 2 2 Ted Williams 400 132 23 2 26 80 83 94 12 47 4 0 4 1 0 19 .330 .458 .593 1.051 103   23.5 1.4 24.9 .206 .012 .218 32.15 1958 2 2 Ted Williams
1958 13 Gene Stephens   BOS 3 L 25 CF   93 86 4 2 1 .978   1958 13 Gene Stephens 140 32 3 0 5 16 18 11 1 24 0 0 1 1 1 5 .229 .283 .357 .640 13   1.1 0.9 2.0 .012 .010 .022 0.81 1958 13 Gene Stephens
       
1959 10 8 Ted Williams BBW T26 a,A   BOS 5 L 40   76 94 4 3 0 .970   1959 10 8 Ted Williams 248 58 14 0 10 28 39 49 4 25 1 0 5 0 0 5 .234 .356 .411 .767 40   6.7 1.0 7.7 .088 .013 .101 7.29 1959 10 8 Ted Williams
1959 11 Gene Stephens   BOS 5 L 26   61 81 7 2 0 .978   1959 11 Gene Stephens 167 51 8 1 1 17 19 13 0 20 2 4 1 5 1 2 .305 .361 .383 .744 25   3.8 1.0 4.8 .062 .016 .079 4.01 1959 11 Gene Stephens
1959 14 Gary Geiger   BOS 5 L 22 CF   47 49 1 0 0 1.000   1959 14 Gary Geiger 83 21 3 2 3 9 12 4 0 11 0 1 0 0 2 2 .253 .287 .446 .733 9   1.1 0.5 1.6 .023 .011 .034 0.88 1959 14 Gary Geiger
1959 16 Dick Gernert   BOS 5 R 30 1B   21 29 1 1 0 .968   1959 16 Dick Gernert 44 7 0 0 1 5 6 10 0 5 0 0 0 0 0 1 .159 .315 .227 .542 4   0.7 0.4 1.1 .033 .019 .052 0.75 1959 16 Dick Gernert
       
1960 1 1 Ted Williams BBW 13 a(2)   BOS 7 L 41   87 131 6 1 1 .993   1960 1 1 Ted Williams 291 97 15 0 29 55 70 69 5 34 3 0 1 1 1 7 .333 .464 .684 1.148 84   19.9 1.0 20.9 .229 .011 .240 28.63 1960 1 1 Ted Williams
1960 16 Rip Repulski   BOS 7 R 32   33 56 0 0 0 1.000   1960 16 Rip Repulski 99 24 5 1 1 9 11 6 0 16 0 1 2 0 0 4 .242 .280 .343 .623 9   0.6 0.4 1.0 .018 .012 .030 0.49 1960 16 Rip Repulski
1960 17 Carroll Hardy R   BOS 7 R 27   41 45 3 0 1 1.000   1960 17 Carroll Hardy 61 19 4 1 1 7 9 9 0 16 0 1 1 1 1 4 .311 .394 .459 .853 10   0.7 0.3 1.0 .017 .007 .024 0.44 1960 17 Carroll Hardy
1960 13 Gene Stephens   BOS 7 L 27 CF,RF   21 39 2 1 0 .976   1960 13 Gene Stephens 68 20 3 0 2 7 10 9 0 12 0 0 1 3 2 0 .294 .372 .426 .798 12   1.9 0.5 2.4 .090 .024 .114 1.71 1960 13 Gene Stephens
       
1961 6 6 Carl Yastrzemski BBW R   BOS 6 L 21   147 248 12 10 1 .963   1961 6 6 Carl Yastrzemski 582 155 31 6 11 71 80 50 3 96 3 2 5 6 5 19 .266 .325 .397 .722 72   9.2 2.7 11.9 .063 .018 .081 10.98 1961 6 6 Carl Yastrzemski
1961 20 Carroll Hardy   BOS 6 R 28 CF   20 23 1 3 0 .889   1961 20 Carroll Hardy 52 17 1 1 1 9 6 4 0 9 0 2 0 1 0 0 .327 .375 .442 .817 9   1.3 0.3 1.6 .065 .015 .080 1.47 1961 20 Carroll Hardy
       
1962 3 3 Carl Yastrzemski BBW T18   BOS 8 L 22   160 329 15 11 3 .969   1962 3 3 Carl Yastrzemski 646 191 43 6 19 99 94 66 7 82 3 2 2 7 4 27 .296 .363 .469 .832 100   17.1 4.0 21.1 .107 .025 .132 23.10 1962 3 3 Carl Yastrzemski
       
1963 1 1 Carl Yastrzemski BBW 6 a G   BOS 7 L 23   151 281 18 6 3 .980   1963 1 1 Carl Yastrzemski 569 183 40 3 14 90 68 95 6 72 1 1 1 8 5 12 .322 .419 .476 .895 109   24.3 4.3 28.6 .161 .028 .189 37.53 1963 1 1 Carl Yastrzemski
       
1964 3 3 Tony Conigliaro R   BOS 8 R 19 CF   83 136 3 4 0 .972   1964 3 3 Tony Conigliaro 310 96 19 1 16 57 38 32 1 64 5 0 0 2 4 8 .310 .383 .532 .915 61   13.2 1.0 14.2 .159 .012 .171 17.63 1964 3 3 Tony Conigliaro
1964 7 Felix Mantilla   BOS 8 R 29 2B   35 43 0 1 0 .977   1964 7 Felix Mantilla 127 46 6 1 11 21 22 18 1 15 4 0 0 0 1 3 .362 .456 .685 1.141 40   9.0 0.4 9.4 .257 .011 .269 14.62 1964 7 Felix Mantilla
1964 27 Tony Horton R   BOS 8 R 19   24 39 2 0 0 1.000   1964 27 Tony Horton 91 26 4 0 1 9 5 3 0 12 0 0 1 0 0 6 .286 .305 .363 .668 6   - 0.3 0.3 .000 .013 .013 0.10 1964 27 Tony Horton
       
1965 3 3 Carl Yastrzemski BBW T10 a-inj G   BOS 9 L 25   123 196 11 3 2 .986   1965 3 3 Carl Yastrzemski 453 142 42 3 18 73 67 64 8 48 1 2 4 7 4 15 .313 .397 .539 .936 92   18.7 1.9 20.6 .152 .015 .167 24.14 1965 3 3 Carl Yastrzemski
1965 18 Felix Mantilla T29 A(2B)   BOS 9 R 30 2B   20 26 1 3 0 .900   1965 18 Felix Mantilla 62 20 6 0 2 5 10 13 1 6 1 0 1 2 0 4 .323 .442 .516 .958 14   2.3 0.2 2.5 .115 .010 .125 2.53 1965 18 Felix Mantilla
       
Pos St All- Other Left Field Fielding Statistics Pos St Batting Statistics as Left Fielder Win Shares Pos St
Year Rank Rank Name HOF MVP Star Rookie GG SS Team Stdg Bats Age Pos Games PO Assts Err DP F Pct. Year Rank Rank Name At Bats Hits 2B 3B HR Runs RBI BB IBB SO HP SH SF SB CS GDP BA OBA SA OPS RC B WS F WS T WS BWS/G FWS/G TWS/G Adj WSQ Year Rank Rank Name
1966 2 2 Carl Yastrzemski BBW T28 a   BOS 9 L 26   157 307 15 5 2 .985   1966 2 2 Carl Yastrzemski 585 164 39 2 15 80 78 83 9 59 1 0 1 8 9 17 .280 .370 .431 .801 92   17.9 3.4 21.3 .114 .022 .136 24.21 1966 2 2 Carl Yastrzemski
       
1967 1 1 Carl Yastrzemski BBW 1 A G   BOS 1 L 27   161 294 13 7 1 .978   1967 1 1 Carl Yastrzemski 574 187 30 4 44 112 119 90 11 68 4 1 5 10 8 5 .326 .418 .622 1.040 148   38.2 4.0 42.2 .237 .025 .262 64.56 1967 1 1 Carl Yastrzemski
1967 31 George Thomas   BOS 1 R 29 RF   20 11 0 0 0 1.000   1967 31 George Thomas 19 4 0 0 0 2 1 0 0 8 1 0 0 0 0 0 .211 .250 .211 .461 1   - 0.1 0.1 .000 .005 .005 0.02 1967 31 George Thomas
       
1968 1 1 Carl Yastrzemski BBW 9 A G   BOS 4 L 28   154 298 12 2 3 .994   1968 1 1 Carl Yastrzemski 524 156 30 2 23 89 70 118 13 86 2 0 4 12 5 12 .298 .426 .494 .920 118   34.8 3.3 38.1 .226 .021 .247 54.26 1968 1 1 Carl Yastrzemski
       
1969 3 3 Carl Yastrzemski BBW T18 a G   BOS 3E L 29 1B   140 237 17 4 2 .984   1969 3 3 Carl Yastrzemski 510 129 26 2 30 79 94 88 9 74 1 0 2 13 7 12 .253 .363 .488 .851 92   19.2 3.1 22.3 .137 .022 .159 27.73 1969 3 3 Carl Yastrzemski
1969 23 Joe Lahoud R   BOS 3E L 22 RF   24 24 1 1 0 .962   1969 23 Joe Lahoud 61 16 3 0 2 9 4 11 0 9 0 0 0 0 1 1 .262 .375 .410 .785 10   1.3 0.3 1.6 .054 .013 .067 1.29 1969 23 Joe Lahoud
       
1970 13 11 Billy Conigliaro R   BOS 3E R 22 CF,RF   75 121 7 2 0 .985   1970 13 11 Billy Conigliaro 261 69 12 1 11 35 36 22 0 45 6 0 2 1 4 10 .264 .333 .444 .777 36   5.8 1.4 7.2 .077 .019 .096 6.26 1970 13 11 Billy Conigliaro
1970 5 Carl Yastrzemski BBW 4 A   BOS 3E L 30 1B   67 115 3 4 0 .967   1970 5 Carl Yastrzemski 228 69 10 0 17 47 44 60 6 28 0 0 1 13 6 5 .303 .446 .570 1.016 62   14.3 1.2 15.5 .213 .018 .231 20.92 1970 5 Carl Yastrzemski
1970 21 George Thomas   BOS 3E R 32   24 29 0 1 0 .967   1970 21 George Thomas 63 20 3 0 2 8 10 9 0 6 0 0 0 0 0 1 .317 .403 .460 .863 12   2.5 0.2 2.7 .104 .008 .113 2.54 1970 21 George Thomas
       
1971 3 3 Carl Yastrzemski BBW A G   BOS 3E L 31   146 281 16 2 4 .993   1971 3 3 Carl Yastrzemski 506 127 21 2 15 76 70 106 12 60 1 0 5 8 7 14 .251 .379 .389 .768 79   17.0 3.5 20.5 .116 .024 .140 22.46 1971 3 3 Carl Yastrzemski
       
1972 7 7 Carl Yastrzemski BBW A   BOS 2E L 32 1B   83 141 10 4 1 .974   1972 7 7 Carl Yastrzemski 294 77 11 1 3 43 34 47 2 29 3 0 7 3 4 10 .262 .362 .337 .699 38   9.5 1.4 10.9 .114 .017 .131 11.91 1972 7 7 Carl Yastrzemski
1972 21 Ben Oglivie R   BOS 2E L 23 RF   32 46 4 1 1 .980   1972 21 Ben Oglivie 105 19 7 1 1 4 11 9 2 32 0 0 0 1 0 4 .181 .246 .295 .541 7   1.4 0.5 1.9 .044 .016 .059 1.40 1972 21 Ben Oglivie
1972 27 Rick Miller R   BOS 2E L 24 CF   23 22 5 1 0 .964   1972 27 Rick Miller 37 7 0 0 3 6 9 4 0 13 0 1 1 0 1 1 .189 .262 .432 .694 4   0.7 0.2 0.9 .030 .009 .039 0.54 1972 27 Rick Miller
       
1973 1 1 Tommy Harper 13   BOS 2E R 32   140 245 13 4 2 .985   1973 1 1 Tommy Harper 550 156 23 3 17 91 69 56 2 89 1 8 1 52 14 6 .284 .350 .429 .779 88   16.4 3.7 20.1 .117 .026 .144 24.08 1973 1 1 Tommy Harper
       
1974 19 11 Tommy Harper   BOS 3E R 33 DH   61 105 2 2 0 .982   1974 19 11 Tommy Harper 239 53 10 0 3 33 11 24 1 36 0 5 2 12 4 3 .222 .291 .301 .592 23   2.6 1.2 3.8 .043 .020 .062 2.94 1974 19 11 Tommy Harper
1974 3 Carl Yastrzemski BBW 18 a(1B)   BOS 3E L 34 1B   63 99 2 4 1 .962   1974 3 Carl Yastrzemski 218 74 10 1 8 41 34 41 6 16 3 0 4 6 3 5 .339 .444 .505 .949 52   11.5 1.3 12.8 .183 .021 .203 17.89 1974 3 Carl Yastrzemski
1974 18 Bernie Carbo   BOS 3E L 26 RF   33 56 2 0 0 1.000   1974 18 Bernie Carbo 106 24 5 0 5 16 15 15 2 24 1 0 0 2 1 5 .226 .328 .415 .743 14   2.6 0.8 3.4 .079 .024 .103 3.38 1974 18 Bernie Carbo
1974 28 Rick Miller   BOS 3E L 26 CF   21 10 0 0 0 1.000   1974 28 Rick Miller 4 1 0 0 0 2 0 1 0 1 0 0 0 0 0 0 .250 .400 .250 .650 1   0.2 0.1 0.3 .010 .005 .014 0.11 1974 28 Rick Miller
       
1975 6 6 Jim Rice BBW 3 R-2   BOS 1E R 22 DH   90 162 6 0 0 1.000   1975 6 6 Jim Rice 348 112 16 3 14 56 63 24 5 65 4 1 4 5 4 13 .322 .368 .506 .874 60   11.7 2.3 14.0 .130 .026 .156 16.65 1975 6 6 Jim Rice
1975 8 Bernie Carbo   BOS 1E L 27 RF   38 75 3 3 0 .963   1975 8 Bernie Carbo 126 36 9 1 11 31 27 38 3 22 1 0 1 2 3 3 .286 .452 .635 1.087 38   8.4 1.0 9.4 .221 .026 .247 14.10 1975 8 Bernie Carbo
1975 24 Juan Beniquez   BOS 1E R 25 DH   31 70 2 1 1 .986   1975 24 Juan Beniquez 97 27 4 3 1 13 8 9 0 12 0 2 1 1 4 3 .278 .336 .412 .748 12   1.9 0.7 2.6 .061 .023 .084 2.27 1975 24 Juan Beniquez
1975 35 Rick Miller   BOS 1E L 27 RF   26 16 1 1 0 .944   1975 35 Rick Miller 16 1 0 0 0 2 1 4 1 4 0 0 0 0 0 0 .063 .250 .063 .313 0   - 0.2 0.2 .000 .008 .008 0.05 1975 35 Rick Miller
       
1976 6 6 Jim Rice BBW   BOS 3E R 23 DH   98 199 8 7 0 .967   1976 6 6 Jim Rice 378 110 16 6 17 55 53 21 1 80 1 1 4 6 3 12 .291 .327 .500 .827 58   10.1 2.0 12.1 .103 .020 .123 13.12 1976 6 6 Jim Rice
1976 8 Carl Yastrzemski BBW 14 a   BOS 3E L 36 1B   51 93 3 2 0 .980   1976 8 Carl Yastrzemski 179 59 10 2 7 36 43 26 3 21 0 1 5 1 0 5 .330 .405 .525 .930 39   7.2 1.0 8.2 .141 .020 .161 10.15 1976 8 Carl Yastrzemski
1976 29 Rick Miller   BOS 3E L 28 CF,RF   28 42 2 1 0 .978   1976 29 Rick Miller 59 11 1 1 0 6 0 9 1 9 0 1 0 4 3 1 .186 .294 .237 .531 4   0.6 0.5 1.1 .021 .018 .039 0.67 1976 29 Rick Miller
       
1977 2 2 Carl Yastrzemski BBW 17 A G   BOS T2E L 37   138 285 16 0 1 1.000   1977 2 2 Carl Yastrzemski 508 151 25 3 27 96 94 69 6 34 0 0 10 9 1 8 .297 .375 .518 .893 104   19.1 4.2 23.3 .138 .030 .169 30.13 1977 2 2 Carl Yastrzemski
       
1978 1 1 Jim Rice BBW 1 A   BOS 2E R 25 DH   101 212 13 3 1 .987   1978 1 1 Jim Rice 411 135 17 7 28 74 93 36 5 77 4 0 4 5 4 7 .328 .385 .608 .993 95   22.0 2.8 24.8 .218 .028 .246 38.67 1978 1 1 Jim Rice
1978 12 Carl Yastrzemski BBW 18 a-inj   BOS 2E L 38 1B,DH   64 122 7 2 2 .985   1978 12 Carl Yastrzemski 225 57 7 2 8 32 38 45 6 20 0 1 2 1 2 2 .253 .375 .409 .784 37   7.2 1.3 8.5 .113 .020 .133 9.75 1978 12 Carl Yastrzemski
       
1979 1 1 Jim Rice BBW 5 A   BOS 3E R 26 DH   124 238 8 3 1 .988   1979 1 1 Jim Rice 490 160 32 4 28 87 99 41 3 76 2 0 6 5 3 12 .327 .377 .580 .957 105   20.0 3.0 23.0 .161 .024 .185 30.57 1979 1 1 Jim Rice
1979 17 Carl Yastrzemski BBW A   BOS 3E L 39 1B,DH   34 56 1 2 0 .966   1979 17 Carl Yastrzemski 121 41 8 1 5 19 22 16 4 11 1 0 3 1 1 0 .339 .411 .545 .956 29   4.2 0.6 4.8 .124 .018 .141 5.57 1979 17 Carl Yastrzemski
       
1980 7 7 Jim Rice BBW A-INJ BOS 4E R 27   108 232 10 3 2 .988   1980 7 7 Jim Rice 442 124 17 5 19 68 80 26 3 79 4 0 3 5 3 14 .281 .324 .471 .795 63   11.2 2.4 13.6 .104 .022 .126 14.23 1980 7 7 Jim Rice
1980 14 Carl Yastrzemski BBW BOS 4E L 40 DH   34 61 3 0 1 1.000   1980 14 Carl Yastrzemski 119 39 6 0 7 20 20 11 2 10 0 1 0 0 1 1 .328 .385 .555 .940 25   4.4 0.7 5.1 .129 .021 .150 5.82 1980 14 Carl Yastrzemski
     
Pos St All- Other Left Field Fielding Statistics Pos St Batting Statistics as Left Fielder Win Shares Pos St
Year Rank Rank Name HOF MVP Star Rookie GG SS Team Stdg Bats Age Pos Games PO Assts Err DP F Pct. Year Rank Rank Name At Bats Hits 2B 3B HR Runs RBI BB IBB SO HP SH SF SB CS GDP BA OBA SA OPS RC B WS F WS T WS BWS/G FWS/G TWS/G Adj WSQ Year Rank Rank Name
1981 5 5 Jim Rice BBW BOS 5E R 28   108 237 9 3 0 .988   1981 5 5 Jim Rice 451 128 18 1 17 51 62 34 3 76 3 0 7 2 2 14 .284 .333 .441 .774 64   11.9 2.9 14.8 .110 .027 .137 16.16 1981 5 5 Jim Rice
     
1982 6 6 Jim Rice BBW 19 BOS 3E R 29   145 273 10 9 3 .969   1982 6 6 Jim Rice 573 177 24 5 24 86 97 55 6 98 7 0 3 0 1 29 .309 .375 .494 .869 95   17.6 3.1 20.7 .121 .021 .143 22.96 1982 6 6 Jim Rice
1982 17 Reid Nichols R BOS 3E R 23 CF   31 50 6 0 2 1.000   1982 17 Reid Nichols 77 21 4 1 4 10 11 6 1 5 0 1 1 2 1 0 .273 .321 .506 .827 13   2.3 0.7 3.0 .074 .023 .097 2.74 1982 17 Reid Nichols
     
1983 2 2 Jim Rice BBW 4 A S BOS 6E R 30   151 339 21 6 5 .984   1983 2 2 Jim Rice 607 185 33 1 37 87 119 52 10 99 6 0 5 0 2 29 .305 .363 .545 .908 107   21.0 3.5 24.5 .139 .023 .162 29.23 1983 2 2 Jim Rice
     
1984 4 4 Jim Rice BBW T13 a S BOS 4E R 31   157 336 12 4 3 .989   1984 4 4 Jim Rice 649 182 25 7 27 96 119 44 8 101 1 0 6 4 0 35 .280 .324 .465 .789 87   12.0 4.7 16.7 .076 .030 .106 17.58 1984 4 4 Jim Rice
     
1985 7 7 Jim Rice BBW A BOS 5E R 32   130 236 8 9 1 .964   1985 7 7 Jim Rice 514 144 16 3 24 78 94 47 4 73 2 0 9 2 0 34 .280 .337 .463 .800 71   10.4 2.0 12.4 .080 .015 .095 12.70 1985 7 7 Jim Rice
     
1986 1 1 Jim Rice BBW 3 a BOS 1E R 33   156 330 16 8 0 .977   1986 1 1 Jim Rice 615 200 39 2 20 98 110 61 5 75 4 0 9 0 1 19 .325 .385 .493 .878 112   23.8 4.0 27.8 .153 .026 .178 37.30 1986 1 1 Jim Rice
     
1987 12 10 Jim Rice BBW BOS 5E R 34   94 155 12 4 2 .977   1987 12 10 Jim Rice 364 105 14 0 11 60 55 39 2 71 6 0 2 1 1 17 .288 .365 .418 .783 53   6.3 1.2 7.5 .067 .013 .080 6.70 1987 12 10 Jim Rice
1987 7 Mike Greenwell R-4 BOS 5E L 23 RF   64 119 7 4 0 .969   1987 7 Mike Greenwell 241 81 18 3 12 45 56 22 1 21 4 0 3 2 2 5 .336 .396 .585 .981 56   10.3 0.8 11.1 .161 .013 .173 14.62 1987 7 Mike Greenwell
     
1988 1 1 Mike Greenwell 2 a S BOS 1E L 24   143 292 6 4 2 .987   1988 1 1 Mike Greenwell 531 171 34 8 19 78 107 73 16 38 6 0 7 15 6 8 .322 .405 .524 .929 117   25.4 2.6 28.0 .178 .018 .196 38.99 1988 1 1 Mike Greenwell
     
1989 6 7 Mike Greenwell a BOS 3E L 25   139 220 11 8 1 .967   1989 6 7 Mike Greenwell 556 169 33 0 12 84 88 56 15 43 3 0 4 12 5 20 .304 .368 .428 .796 81   13.1 2.0 15.1 .094 .014 .109 15.43 1989 6 7 Mike Greenwell
     
1990 3 3 Mike Greenwell BOS 1E L 26   159 287 13 7 1 .977   1990 3 3 Mike Greenwell 609 181 30 6 14 71 72 64 11 43 4 0 3 8 7 19 .297 .366 .435 .801 78   12.8 3.2 16.0 .081 .020 .101 16.47 1990 3 3 Mike Greenwell
     
1991 3 3 Mike Greenwell BOS T2E L 27   143 263 9 3 3 .989   1991 3 3 Mike Greenwell 536 162 26 6 9 75 83 43 6 35 3 1 7 15 5 11 .302 .353 .424 .777 80   13.8 3.5 17.3 .097 .024 .121 19.84 1991 3 3 Mike Greenwell
     
1992 26 14 Billy Hatcher BOS 7E R 31 NL-LF   63 116 5 4 0 .968   1992 26 14 Billy Hatcher 262 63 12 2 1 28 21 12 1 35 3 6 1 3 6 9 .240 .281 .313 .594 20   0.8 1.4 2.2 .013 .022 .035 1.24 1992 26 14 Billy Hatcher
1992 29 Mike Greenwell BOS 7E L 28   41 85 1 0 0 1.000   1992 29 Mike Greenwell 159 35 1 0 1 14 16 16 1 18 1 0 2 2 3 8 .220 .292 .245 .537 10   - 1.2 1.2 .000 .029 .029 0.62 1992 29 Mike Greenwell
1992 31 Herm Winningham BOS 7E L 30 CF   36 61 4 1 1 .985   1992 31 Herm Winningham 98 23 5 1 0 14 7 4 0 19 0 0 0 3 1 1 .235 .265 .306 .571 8   - 1.0 1.0 .000 .028 .028 0.50 1992 31 Herm Winningham
1992 22 Bob Zupcic R BOS 7E R 25 CF,RF   32 39 4 1 1 .977   1992 22 Bob Zupcic 90 27 6 0 2 11 11 3 1 15 2 3 1 0 0 0 .300 .333 .433 .766 14   1.9 0.7 2.6 .059 .022 .081 2.23 1992 22 Bob Zupcic
     
1993 5 5 Mike Greenwell BOS 5E L 29   134 261 6 2 1 .993   1993 5 5 Mike Greenwell 503 159 36 5 11 75 66 51 12 41 3 2 2 4 4 16 .316 .381 .473 .854 87   13.4 4.1 17.5 .100 .031 .131 19.24 1993 5 5 Mike Greenwell
1993 28 Bob Zupcic BOS 5E R 26 CF,RF   48 48 3 1 1 .981   1993 28 Bob Zupcic 85 19 8 0 0 10 8 9 0 17 0 1 1 0 2 2 .224 .295 .318 .613 8   0.6 0.8 1.4 .013 .017 .029 0.73 1993 28 Bob Zupcic
     
1994 11 10 Mike Greenwell BOS 4E L 30   84 141 10 1 3 .993   1994 11 10 Mike Greenwell 303 78 25 1 10 52 43 34 6 25 4 0 5 2 2 11 .257 .335 .446 .781 44   5.5 1.8 7.3 .065 .021 .087 6.64 1994 11 10 Mike Greenwell
1994 T21 Lee Tinsley R BOS 4E B 25 CF   27 44 1 0 1 1.000   1994 T21 Lee Tinsley 61 15 1 0 1 8 3 4 0 18 1 2 0 5 0 0 .246 .303 .311 .614 7   0.5 0.6 1.1 .019 .022 .041 0.69 1994 T21 Lee Tinsley
     
1995 5 5 Mike Greenwell BOS 1E L 31   118 201 11 6 1 .972   1995 5 5 Mike Greenwell 473 141 24 4 15 67 74 38 4 35 2 0 3 9 5 18 .298 .351 .461 .812 72   10.2 2.3 12.5 .086 .019 .106 13.27 1995 5 5 Mike Greenwell
     
1996 10 8 Mike Greenwell BOS 3E L 32   75 138 9 4 2 .974   1996 10 8 Mike Greenwell 292 86 19 1 7 38 43 17 3 27 2 0 3 4 0 10 .295 .334 .438 .772 41   5.1 1.4 6.5 .068 .019 .087 6.27 1996 10 8 Mike Greenwell
1996 25 Troy O'Leary BOS 3E L 26 RF   66 68 3 3 0 .959   1996 25 Troy O'Leary 116 30 4 2 4 9 15 13 2 22 2 0 0 0 0 3 .259 .344 .431 .775 17   2.1 0.6 2.7 .032 .009 .041 1.79 1996 25 Troy O'Leary
1996 9 Reggie Jefferson BOS 3E B 27 DH   45 61 1 2 0 .969   1996 9 Reggie Jefferson 134 48 8 2 8 21 32 9 2 27 1 0 0 0 0 3 .358 .403 .627 1.030 33   5.7 0.5 6.2 .127 .011 .138 7.55 1996 9 Reggie Jefferson
     
1997 9 7 Wil Cordero BOS 4E R 25   137 249 8 2 3 .992   1997 9 7 Wil Cordero 560 160 26 3 18 83 72 31 7 121 4 0 4 1 3 11 .286 .326 .439 .765 71   8.1 2.4 10.5 .059 .018 .077 9.38 1997 9 7 Wil Cordero
1997 20 Troy O'Leary BOS 4E L 27 RF   24 37 3 2 0 .952   1997 20 Troy O'Leary 78 27 7 0 3 11 18 6 3 8 2 1 2 0 1 4 .346 .398 .551 .949 15   2.4 0.4 2.8 .100 .017 .117 3.09 1997 20 Troy O'Leary
     
1998 7 7 Troy O'Leary BOS 2E L 28   155 298 9 3 1 .990   1998 7 7 Troy O'Leary 609 164 36 8 23 94 83 36 2 107 5 0 5 2 2 17 .269 .313 .468 .781 85   9.8 4.4 14.2 .063 .028 .092 13.39 1998 7 7 Troy O'Leary
     
Pos St All- Other Left Field Fielding Statistics Pos St Batting Statistics as Left Fielder Win Shares Pos St
Year Rank Rank Name HOF MVP Star Rookie GG SS Team Stdg Bats Age Pos Games PO Assts Err DP F Pct. Year Rank Rank Name At Bats Hits 2B 3B HR Runs RBI BB IBB SO HP SH SF SB CS GDP BA OBA SA OPS RC B WS F WS T WS BWS/G FWS/G TWS/G Adj WSQ Year Rank Rank Name
1999 2 2 Troy O'Leary BOS 2E L 29   157 297 9 2 3 .994   1999 2 2 Troy O'Leary 595 167 36 4 28 84 103 56 5 91 4 0 5 1 2 21 .281 .344 .496 .840 97   13.2 5.5 18.7 .084 .035 .119 21.76 1999 2 2 Troy O'Leary
     
2000 13 10 Troy O'Leary BOS 2E L 30   137 245 9 3 0 .988   2000 13 10 Troy O'Leary 512 134 30 4 13 68 70 44 2 75 2 0 4 0 2 12 .262 .320 .412 .732 66   6.6 4.5 11.1 .048 .033 .081 9.84 2000 13 10 Troy O'Leary
     
2001 5 5 Manny Ramirez 9 A S BOS 2E R 29 DH   55 98 1 0 0 1.000   2001 5 5 Manny Ramirez 202 53 16 0 18 42 45 38 7 61 1 0 1 0 1 3 .262 .380 .609 .989 48   8.9 1.3 10.2 .162 .024 .185 14.72 2001 5 5 Manny Ramirez
2001 23 Troy O'Leary BOS 2E L 31 RF   52 91 3 1 0 .989   2001 23 Troy O'Leary 182 43 7 3 8 23 25 8 1 39 2 0 1 0 1 2 .236 .275 .440 .715 21   2.1 1.2 3.3 .040 .023 .063 2.79 2001 23 Troy O'Leary
2001 21 Dante Bichette BOS 2E R 37 DH   37 60 4 2 1 .970   2001 21 Dante Bichette 148 50 11 0 3 13 11 6 1 30 2 0 0 1 2 7 .338 .372 .473 .845 23   2.4 0.8 3.2 .065 .022 .086 3.15 2001 21 Dante Bichette
2001 T31 Darren Lewis BOS 2E R 33 CF,RF   26 35 1 0 0 1.000   2001 T31 Darren Lewis 47 11 1 0 0 5 2 3 0 7 1 2 0 1 0 2 .234 .294 .255 .549 4   0.5 0.6 1.1 .019 .023 .042 0.76 2001 T31 Darren Lewis
     
2002 2 2 Manny Ramirez 9 A BOS 2E R 30 DH   64 98 4 5 0 .953   2002 2 2 Manny Ramirez 226 73 18 0 21 46 60 38 6 43 2 0 1 0 0 9 .323 .423 .681 1.104 64   14.3 1.0 15.3 .223 .016 .239 24.80 2002 2 2 Manny Ramirez
2002 19 Rickey Henderson BBW BOS 2E R 43   49 78 4 4 0 .953   2002 19 Rickey Henderson 160 37 6 1 4 27 15 32 0 39 4 0 1 6 2 3 .231 .371 .356 .727 22   3.0 0.8 3.8 .061 .016 .078 3.51 2002 19 Rickey Henderson
2002 9 Brian Daubach BOS 2E L 30 1B,DH   35 45 1 0 0 1.000   2002 9 Brian Daubach 114 33 7 1 7 17 23 17 2 38 2 0 0 1 1 2 .289 .391 .553 .944 25   4.5 0.6 5.1 .129 .017 .146 6.45 2002 9 Brian Daubach
2002 22 Cliff Floyd BOS 2E L 29 LF,RF   21 31 1 1 1 .970   2002 22 Cliff Floyd 71 22 11 0 3 13 5 9 0 9 1 0 1 1 0 3 .310 .390 .592 .982 16   2.1 0.3 2.4 .100 .014 .114 2.69 2002 22 Cliff Floyd
     
2003 1 1 Manny Ramirez 6 A-INJ S BOS 2E R 31 DH   128 207 11 4 1 .982   2003 1 1 Manny Ramirez 473 161 32 1 33 103 91 74 23 74 6 0 4 3 0 19 .340 .433 .622 1.055 125   23.4 2.2 25.6 .183 .017 .200 34.06 2003 1 1 Manny Ramirez
2003 29 Gabe Kapler BOS 2E R 27 RF   25 21 1 1 0 .957   2003 29 Gabe Kapler 37 10 1 0 3 8 8 4 0 8 0 0 0 1 0 1 .270 .341 .541 .882 7   1.0 0.2 1.2 .040 .008 .048 0.78 2003 29 Gabe Kapler
     
2004 2 2 Manny Ramirez 3 A S BOS 2E R 32   132 198 4 7 0 .967   2004 2 2 Manny Ramirez 498 154 36 0 40 98 116 73 14 110 5 0 6 2 2 16 .309 .399 .622 1.021 122   21.9 2.3 24.2 .166 .017 .183 31.39 2004 2 2 Manny Ramirez
2004 29 Kevin Millar BOS 2E R 32 1B,RF   20 25 0 0 0 1.000   2004 29 Kevin Millar 44 7 1 0 0 6 2 9 0 9 2 0 1 0 0 3 .159 .321 .182 .503 3   0.5 0.3 0.8 .025 .015 .040 0.48 2004 29 Kevin Millar
     
2005 1 1 Manny Ramirez 4 A S BOS T1E R 33   149 243 17 7 0 .974   2005 1 1 Manny Ramirez 544 160 29 1 45 112 143 78 9 118 10 0 6 1 0 20 .294 .389 .599 .988 125   34.2 2.6 36.8 .230 .017 .247 56.71 2005 1 1 Manny Ramirez
2005 22 Kevin Millar BOS T1E R 33 1B   20 19 0 0 0 1.000   2005 22 Kevin Millar 50 15 6 0 0 8 5 6 0 11 0 0 3 0 0 2 .300 .356 .420 .776 8   1.1 0.2 1.3 .055 .010 .065 1.03 2005 22 Kevin Millar
     
2006 1 1 Manny Ramirez T18 A-INJ S BOS 3E R 34   123 175 7 2 0 .989   2006 1 1 Manny Ramirez 430 137 27 1 32 76 96 96 16 99 1 0 7 0 1 13 .319 .438 .609 1.047 118   27.5 1.9 29.4 .224 .015 .239 45.45 2006 1 1 Manny Ramirez
2006 32 Gabe Kapler BOS 3E R 30 RF   21 18 2 0 0 1.000   2006 32 Gabe Kapler 20 5 0 0 1 3 4 6 0 2 0 0 0 0 0 1 .250 .423 .400 .823 4   0.3 0.4 0.7 .014 .019 .033 0.40 2006 32 Gabe Kapler
     
2007 4 4 Manny Ramirez a BOS 1E R 35   120 182 8 2 0 .990   2007 4 4 Manny Ramirez 439 131 28 1 18 80 77 65 9 76 7 0 8 0 0 21 .298 .391 .490 .881 83   12.2 2.0 14.2 .102 .017 .118 16.47 2007 4 4 Manny Ramirez
2007 11 Jacoby Ellsbury R BOS 1E L 23   22 37 0 0 0 1.000   2007 11 Jacoby Ellsbury 65 25 6 1 2 14 13 4 0 6 1 0 1 4 0 1 .385 .423 .600 1.023 18   4.2 0.4 4.6 .191 .018 .209 7.09 2007 11 Jacoby Ellsbury
2007 32 Eric Hinske BOS 1E L 29 1B   24 26 1 0 0 1.000   2007 32 Eric Hinske 35 10 5 0 1 4 5 8 0 10 0 0 0 1 0 0 .286 .419 .514 .933 9   0.9 0.3 1.2 .038 .013 .050 0.90 2007 32 Eric Hinske
2007 36 Wily Mo Pena BOS 1E R 25 RF   22 13 1 0 0 1.000   2007 36 Wily Mo Pena 28 2 0 0 1 2 1 4 0 12 0 0 0 0 0 1 .071 .188 .179 .367 1   - 0.2 0.2 .000 .009 .009 0.06 2007 36 Wily Mo Pena
     
2008 5 5 Manny Ramirez A BOS 2E R 36 DH/NL-LF   66 99 6 1 2 .991   2008 5 5 Manny Ramirez 255 76 17 1 14 44 48 29 4 58 4 0 0 0 0 8 .298 .378 .537 .915 51   8.5 1.8 10.3 .129 .027 .156 13.34 2008 5 5 Manny Ramirez
2008 25 Jacoby Ellsbury R BOS 2E L 24 CF,RF   58 89 1 0 1 1.000   2008 25 Jacoby Ellsbury 158 37 2 0 1 25 9 8 0 28 2 1 3 12 5 0 .234 .275 .266 .541 13   1.5 1.6 3.1 .026 .028 .053 2.35 2008 25 Jacoby Ellsbury
2008 12 Jason Bay BOS 2E R 29 NL-LF   49 76 5 1 0 .988   2008 12 Jason Bay 184 54 12 2 9 39 37 22 2 51 2 0 3 3 0 4 .293 .370 .527 .897 37   5.5 1.4 6.9 .112 .029 .141 8.49 2008 12 Jason Bay
     
2009 1 1 Jason Bay 7 A S BOS 2E R 30   150 310 15 0 2 1.000   2009 1 1 Jason Bay 528 142 29 3 36 104 119 93 3 161 9 0 4 13 3 9 .269 .385 .540 .925 117   25.0 4.8 29.8 .167 .032 .199 42.65 2009 1 1 Jason Bay
     
2010 21 13 Bill Hall BOS 3E R 30 2B   55 78 3 1 0 .988   2010 21 13 Bill Hall 127 27 6 1 7 12 20 15 0 43 0 2 0 1 0 2 .213 .296 .441 .737 17   2.7 1.1 3.8 .049 .020 .069 3.11 2010 21 13 Bill Hall
2010 16 Daniel Nava R BOS 3E B 27   54 65 2 0 0 1.000   2010 16 Daniel Nava 151 37 14 1 1 24 24 18 1 41 7 0 0 1 1 5 .245 .352 .371 .723 20   4.3 0.9 5.2 .080 .017 .096 5.02 2010 16 Daniel Nava
2010 T26 Jeremy Hermida BOS 3E L 26 RF   46 84 3 4 0 .956   2010 T26 Jeremy Hermida 142 27 6 0 5 14 21 12 0 41 0 0 1 0 0 0 .190 .252 .338 .590 13   1.1 1.0 2.1 .024 .022 .046 1.39 2010 T26 Jeremy Hermida
2010 T31 Darnell McDonald BOS 3E R 31 CF,RF   30 31 1 0 0 1.000   2010 T31 Darnell McDonald 43 11 2 1 1 3 5 2 0 12 1 5 0 0 0 0 .256 .304 .419 .723 6   0.9 0.5 1.4 .030 .017 .047 0.95 2010 T31 Darnell McDonald
2010 T26 Eric Patterson BOS 3E L 27 CF   22 20 2 0 0 1.000   2010 T26 Eric Patterson 24 6 1 0 2 5 2 1 0 4 1 0 0 0 1 1 .250 .308 .542 .850 3   0.3 0.3 0.6 .014 .014 .027 0.30 2010 T26 Eric Patterson
Copyright 2009-11 by Andre Lower
Sources:
All-Time Major League Handbook
Win Shares Digital Update
baseball-reference.com
ESPN Baseball Encyclopedia